Time;durP1;ratioP1;P1;durP2;ratioP2;P2;SDS_P1;SDS_P2;PMS_P1;PMS_P2;Temp;Humidity;BMP_temperature;BMP_pressure;BME280_temperature;BME280_humidity;BME280_pressure;Samples;Min_cycle;Max_cycle;Signal;HPM_P1;HPM_P2
2022/12/29 00:01:52;;;;;;;;;;;21.50;63.80;;;;;;1587117;73;743;-78
2022/12/29 00:03:54;;;;;;;;;;;21.50;63.80;;;;;;1593065;74;1366;-77
2022/12/29 00:05:57;;;;;;;;;;;21.50;63.90;;;;;;1611647;73;610;-77
2022/12/29 00:07:59;;;;;;;;;;;21.50;64.00;;;;;;1599304;72;1894;-76
2022/12/29 00:10:00;;;;;;;;;;;21.50;63.90;;;;;;1602804;73;767;-76
2022/12/29 00:12:03;;;;;;;;;;;21.40;63.90;;;;;;1598447;73;727;-76
2022/12/29 00:16:26;;;;;;;;;;;21.50;63.80;;;;;;1603732;73;1776;-76
2022/12/29 00:18:27;;;;;;;;;;;21.50;63.90;;;;;;1600558;73;746;-77
2022/12/29 00:36:35;;;;;;;;;;;21.40;63.80;;;;;;1594016;73;1508;-79
2022/12/29 00:45:37;;;;;;;;;;;21.50;64.20;;;;;;1594946;73;681;-79
2022/12/29 00:47:39;;;;;;;;;;;21.50;64.20;;;;;;1549410;74;1939;-76
2022/12/29 00:49:41;;;;;;;;;;;21.40;64.10;;;;;;1574027;74;1509;-78
2022/12/29 00:51:43;;;;;;;;;;;21.40;64.10;;;;;;1544207;75;732;-78
2022/12/29 00:53:45;;;;;;;;;;;21.50;64.10;;;;;;1543679;75;1167;-79
2022/12/29 00:55:47;;;;;;;;;;;21.40;64.00;;;;;;1576056;75;714;-79
2022/12/29 00:57:48;;;;;;;;;;;21.40;64.10;;;;;;1557670;75;719;-80
2022/12/29 00:59:50;;;;;;;;;;;21.50;64.30;;;;;;1548917;75;700;-80
2022/12/29 01:01:52;;;;;;;;;;;21.50;64.20;;;;;;1559606;74;674;-81
2022/12/29 01:03:54;;;;;;;;;;;21.50;64.30;;;;;;1565216;75;1540;-80
2022/12/29 01:05:56;;;;;;;;;;;21.50;64.20;;;;;;1576921;74;713;-80
2022/12/29 01:07:58;;;;;;;;;;;21.50;64.10;;;;;;1559270;75;1934;-78
2022/12/29 01:10:14;;;;;;;;;;;21.50;64.20;;;;;;1561418;75;735;-78
2022/12/29 01:12:16;;;;;;;;;;;21.50;64.30;;;;;;1556266;74;1375;-78
2022/12/29 01:14:18;;;;;;;;;;;21.40;64.10;;;;;;1557902;75;1089;-78
2022/12/29 01:16:20;;;;;;;;;;;21.50;64.20;;;;;;1565705;75;741;-78
2022/12/29 01:18:22;;;;;;;;;;;21.40;64.10;;;;;;1569579;75;1506;-78
2022/12/29 01:20:23;;;;;;;;;;;21.50;64.10;;;;;;1575000;74;720;-78
2022/12/29 01:22:25;;;;;;;;;;;21.50;64.10;;;;;;1564807;75;734;-76
2022/12/29 01:24:27;;;;;;;;;;;21.50;64.30;;;;;;1569517;74;1072;-76
2022/12/29 01:26:29;;;;;;;;;;;21.50;64.30;;;;;;1570542;74;714;-76
2022/12/29 01:28:31;;;;;;;;;;;21.50;64.40;;;;;;1571473;74;1946;-78
2022/12/29 01:30:33;;;;;;;;;;;21.50;64.30;;;;;;1551442;75;728;-76
2022/12/29 01:32:35;;;;;;;;;;;21.50;64.50;;;;;;1567094;75;1509;-76
2022/12/29 01:34:36;;;;;;;;;;;21.40;64.20;;;;;;1583495;74;1107;-75
2022/12/29 01:36:38;;;;;;;;;;;21.50;64.30;;;;;;1556903;75;727;-77
2022/12/29 01:38:40;;;;;;;;;;;21.50;64.50;;;;;;1566878;75;720;-78
2022/12/29 01:40:46;;;;;;;;;;;21.50;64.50;;;;;;1562737;75;759;-76
2022/12/29 01:42:47;;;;;;;;;;;21.60;64.50;;;;;;1567027;74;1163;-77
2022/12/29 01:44:54;;;;;;;;;;;21.50;64.30;;;;;;1556785;74;714;-77
2022/12/29 01:46:56;;;;;;;;;;;21.50;64.40;;;;;;1570172;74;1515;-76
2022/12/29 01:49:14;;;;;;;;;;;21.60;64.30;;;;;;1562581;74;1946;-78
2022/12/29 01:51:16;;;;;;;;;;;21.60;64.30;;;;;;1564016;74;634;-79
2022/12/29 01:53:20;;;;;;;;;;;21.50;64.60;;;;;;1567727;74;1162;-78
2022/12/29 01:55:22;;;;;;;;;;;21.50;64.60;;;;;;1574195;74;1086;-79
2022/12/29 01:57:25;;;;;;;;;;;21.50;64.50;;;;;;1563464;74;770;-78
2022/12/29 01:59:28;;;;;;;;;;;21.50;64.50;;;;;;1561898;75;617;-78
2022/12/29 02:01:30;;;;;;;;;;;21.60;64.60;;;;;;1569269;74;1495;-78
2022/12/29 02:03:32;;;;;;;;;;;21.50;64.40;;;;;;1576354;74;1102;-78
2022/12/29 02:05:42;;;;;;;;;;;21.50;64.50;;;;;;1560152;74;654;-77
2022/12/29 02:07:43;;;;;;;;;;;21.60;64.50;;;;;;1529215;74;1957;-76
2022/12/29 02:09:48;;;;;;;;;;;21.50;64.60;;;;;;1577577;74;663;-76
2022/12/29 02:11:50;;;;;;;;;;;21.50;64.50;;;;;;1562176;75;667;-76
2022/12/29 02:13:52;;;;;;;;;;;21.50;64.60;;;;;;1566990;74;1601;-76
2022/12/29 02:16:12;;;;;;;;;;;21.50;64.50;;;;;;1567808;74;709;-76
2022/12/29 02:18:16;;;;;;;;;;;21.50;64.50;;;;;;1568169;75;683;-76
2022/12/29 02:20:31;;;;;;;;;;;21.50;64.60;;;;;;1558808;75;695;-74
2022/12/29 02:22:51;;;;;;;;;;;21.50;64.60;;;;;;1567364;74;1158;-74
2022/12/29 02:25:01;;;;;;;;;;;21.50;64.50;;;;;;1567732;75;694;-75
2022/12/29 02:27:21;;;;;;;;;;;21.60;64.30;;;;;;1568299;75;691;-77
2022/12/29 02:29:42;;;;;;;;;;;21.60;64.40;;;;;;1567774;75;1940;-77
2022/12/29 02:31:53;;;;;;;;;;;21.60;64.50;;;;;;1573508;74;729;-76
2022/12/29 02:34:03;;;;;;;;;;;21.60;64.50;;;;;;1563714;74;1120;-76
2022/12/29 02:36:07;;;;;;;;;;;21.50;64.50;;;;;;1559341;74;1117;-76
2022/12/29 02:38:11;;;;;;;;;;;21.50;64.60;;;;;;1558636;75;683;-77
2022/12/29 02:40:14;;;;;;;;;;;21.50;64.60;;;;;;1560878;75;1047;-77
2022/12/29 02:42:18;;;;;;;;;;;21.50;64.50;;;;;;1573165;74;1444;-77
2022/12/29 02:44:21;;;;;;;;;;;21.50;64.60;;;;;;1572600;74;1095;-77
2022/12/29 02:46:30;;;;;;;;;;;21.50;64.50;;;;;;1566394;75;1101;-74
2022/12/29 02:48:33;;;;;;;;;;;21.50;64.50;;;;;;1563088;74;1951;-77
2022/12/29 02:50:38;;;;;;;;;;;21.50;64.50;;;;;;1558022;74;757;-77
2022/12/29 02:52:42;;;;;;;;;;;21.50;64.70;;;;;;1560901;75;800;-75
2022/12/29 02:54:44;;;;;;;;;;;21.60;64.60;;;;;;1558577;75;1016;-76
2022/12/29 02:56:46;;;;;;;;;;;21.50;64.70;;;;;;1570781;75;1564;-76
2022/12/29 02:58:47;;;;;;;;;;;21.50;64.60;;;;;;1571199;74;715;-78
2022/12/29 03:01:02;;;;;;;;;;;21.50;64.70;;;;;;1563014;74;731;-76
2022/12/29 03:03:20;;;;;;;;;;;21.50;64.70;;;;;;1564585;74;1152;-74
2022/12/29 03:05:23;;;;;;;;;;;21.50;64.60;;;;;;1561946;75;1141;-77
2022/12/29 03:07:27;;;;;;;;;;;21.60;64.60;;;;;;1562824;74;733;-76
2022/12/29 03:09:36;;;;;;;;;;;21.60;64.60;;;;;;1573067;74;1939;-76
2022/12/29 03:16:22;;;;;;;;;;;21.50;64.70;;;;;;1560974;75;757;-75
2022/12/29 03:18:25;;;;;;;;;;;21.50;64.90;;;;;;1567546;74;776;-76
2022/12/29 03:20:29;;;;;;;;;;;21.60;64.90;;;;;;1560169;75;685;-76
2022/12/29 03:22:32;;;;;;;;;;;21.60;64.90;;;;;;1571061;74;1169;-75
2022/12/29 03:24:35;;;;;;;;;;;21.60;64.90;;;;;;1567502;75;1428;-74
2022/12/29 03:26:37;;;;;;;;;;;21.60;64.90;;;;;;1572881;74;707;-75
2022/12/29 03:28:40;;;;;;;;;;;21.60;64.80;;;;;;1562101;75;1939;-76
2022/12/29 03:30:42;;;;;;;;;;;21.60;64.80;;;;;;1567053;74;722;-76
2022/12/29 03:32:46;;;;;;;;;;;21.60;64.80;;;;;;1564290;74;1127;-77
2022/12/29 03:34:48;;;;;;;;;;;21.70;64.80;;;;;;1560978;74;698;-77
2022/12/29 03:36:52;;;;;;;;;;;21.60;64.90;;;;;;1560949;75;762;-78
2022/12/29 03:38:55;;;;;;;;;;;21.60;64.90;;;;;;1563907;75;1452;-77
2022/12/29 03:40:58;;;;;;;;;;;21.60;65.00;;;;;;1578448;74;628;-77
2022/12/29 03:43:00;;;;;;;;;;;21.60;65.00;;;;;;1558043;74;1058;-78
2022/12/29 03:45:02;;;;;;;;;;;21.60;65.10;;;;;;1567214;75;715;-76
2022/12/29 03:47:04;;;;;;;;;;;21.60;65.30;;;;;;1568015;75;735;-77
2022/12/29 03:49:06;;;;;;;;;;;21.50;65.40;;;;;;1570242;74;1941;-77
2022/12/29 03:51:08;;;;;;;;;;;21.50;65.60;;;;;;1578193;74;725;-77
2022/12/29 03:53:09;;;;;;;;;;;21.50;65.70;;;;;;1568311;74;1474;-76
2022/12/29 03:55:11;;;;;;;;;;;21.50;65.80;;;;;;1579350;74;735;-77
2022/12/29 03:57:13;;;;;;;;;;;21.50;65.90;;;;;;1585104;74;720;-73
2022/12/29 03:59:15;;;;;;;;;;;21.30;66.00;;;;;;1568451;75;723;-73
2022/12/29 04:01:17;;;;;;;;;;;21.40;66.20;;;;;;1561482;74;729;-74
2022/12/29 04:03:19;;;;;;;;;;;21.40;66.40;;;;;;1552679;74;1186;-74
2022/12/29 04:05:21;;;;;;;;;;;21.40;66.50;;;;;;1575876;74;686;-74
2022/12/29 04:07:23;;;;;;;;;;;21.40;66.50;;;;;;1573961;74;1526;-74
2022/12/29 04:09:24;;;;;;;;;;;21.40;66.40;;;;;;1567759;74;1980;-74
2022/12/29 04:11:26;;;;;;;;;;;21.40;66.30;;;;;;1555469;75;701;-72
2022/12/29 04:13:28;;;;;;;;;;;21.50;66.40;;;;;;1556957;74;1153;-76
2022/12/29 04:15:30;;;;;;;;;;;21.40;66.30;;;;;;1553683;72;225914;-58
2022/12/29 04:17:32;;;;;;;;;;;21.50;66.30;;;;;;1551691;75;736;-59
2022/12/29 04:19:34;;;;;;;;;;;21.50;66.20;;;;;;1527616;76;1265;-58
2022/12/29 04:21:36;;;;;;;;;;;21.50;66.10;;;;;;1519867;77;1424;-58
2022/12/29 04:23:38;;;;;;;;;;;21.60;66.20;;;;;;1515434;76;783;-58
2022/12/29 04:25:40;;;;;;;;;;;21.50;66.20;;;;;;1512273;77;793;-58
2022/12/29 04:27:42;;;;;;;;;;;21.50;66.10;;;;;;1512829;77;703;-58
2022/12/29 04:29:44;;;;;;;;;;;21.60;66.00;;;;;;1514639;77;1940;-58
2022/12/29 04:31:46;;;;;;;;;;;21.60;66.00;;;;;;1509147;77;682;-57
2022/12/29 04:33:48;;;;;;;;;;;21.70;66.00;;;;;;1510733;77;702;-58
2022/12/29 04:35:50;;;;;;;;;;;21.60;66.10;;;;;;1502226;77;1497;-58
2022/12/29 04:37:51;;;;;;;;;;;21.60;66.10;;;;;;1515098;77;766;-58
2022/12/29 04:39:53;;;;;;;;;;;21.60;66.20;;;;;;1499916;77;1084;-58
2022/12/29 04:41:55;;;;;;;;;;;21.60;66.20;;;;;;1514407;77;739;-58
2022/12/29 04:43:57;;;;;;;;;;;21.60;66.20;;;;;;1513393;77;749;-58
2022/12/29 04:45:59;;;;;;;;;;;21.60;66.30;;;;;;1517323;77;764;-58
2022/12/29 04:48:01;;;;;;;;;;;21.60;66.30;;;;;;1516551;77;805;-58
2022/12/29 04:50:03;;;;;;;;;;;21.60;66.30;;;;;;1517592;77;1946;-58
2022/12/29 04:52:05;;;;;;;;;;;21.60;66.30;;;;;;1509695;77;609;-58
2022/12/29 04:54:07;;;;;;;;;;;21.60;66.10;;;;;;1507418;77;795;-58
2022/12/29 04:56:09;;;;;;;;;;;21.60;66.10;;;;;;1515081;77;783;-57
2022/12/29 04:58:10;;;;;;;;;;;21.70;66.20;;;;;;1499450;77;730;-57
2022/12/29 05:00:13;;;;;;;;;;;21.60;66.10;;;;;;1509817;77;1178;-58
2022/12/29 05:02:15;;;;;;;;;;;21.60;66.10;;;;;;1515135;77;717;-57
2022/12/29 05:04:17;;;;;;;;;;;21.60;66.10;;;;;;1511789;77;1594;-57
2022/12/29 05:06:19;;;;;;;;;;;21.60;66.10;;;;;;1517085;77;726;-58
2022/12/29 05:08:21;;;;;;;;;;;21.60;66.00;;;;;;1504491;77;1949;-58
2022/12/29 05:10:23;;;;;;;;;;;21.70;65.90;;;;;;1506403;77;722;-59
2022/12/29 05:12:25;;;;;;;;;;;21.70;65.80;;;;;;1526885;77;733;-57
2022/12/29 05:14:27;;;;;;;;;;;21.70;65.80;;;;;;1500997;77;658;-58
2022/12/29 05:16:29;;;;;;;;;;;21.70;65.70;;;;;;1505723;77;1517;-58
2022/12/29 05:18:30;;;;;;;;;;;21.70;65.70;;;;;;1509738;77;1174;-58
2022/12/29 05:20:32;;;;;;;;;;;21.70;65.70;;;;;;1523279;77;696;-58
2022/12/29 05:22:34;;;;;;;;;;;21.70;65.80;;;;;;1506111;77;792;-58
2022/12/29 05:24:36;;;;;;;;;;;21.70;65.90;;;;;;1511293;77;623;-58
2022/12/29 05:26:38;;;;;;;;;;;21.70;65.90;;;;;;1512401;77;704;-58
2022/12/29 05:28:40;;;;;;;;;;;21.60;65.90;;;;;;1504939;77;1944;-59
2022/12/29 05:30:42;;;;;;;;;;;21.60;65.90;;;;;;1516792;77;1364;-59
2022/12/29 05:32:44;;;;;;;;;;;21.60;65.80;;;;;;1517660;77;688;-58
2022/12/29 05:34:45;;;;;;;;;;;21.70;65.90;;;;;;1520159;77;735;-58
2022/12/29 05:36:47;;;;;;;;;;;21.70;65.80;;;;;;1500414;77;690;-58
2022/12/29 05:38:49;;;;;;;;;;;21.70;65.80;;;;;;1510249;77;1134;-58
2022/12/29 05:40:51;;;;;;;;;;;21.70;65.70;;;;;;1507720;77;775;-58
2022/12/29 05:42:53;;;;;;;;;;;21.70;65.80;;;;;;1523437;77;738;-58
2022/12/29 05:44:55;;;;;;;;;;;21.80;65.70;;;;;;1516600;77;1344;-58
2022/12/29 05:46:57;;;;;;;;;;;21.70;65.70;;;;;;1512833;77;811;-58
2022/12/29 05:48:58;;;;;;;;;;;21.70;65.70;;;;;;1521126;77;1950;-58
2022/12/29 05:51:00;;;;;;;;;;;21.80;65.70;;;;;;1505997;77;709;-58
2022/12/29 05:53:02;;;;;;;;;;;21.80;65.70;;;;;;1515171;77;679;-58
2022/12/29 05:55:04;;;;;;;;;;;21.70;65.90;;;;;;1505546;77;773;-57
2022/12/29 05:57:07;;;;;;;;;;;21.80;65.90;;;;;;1517795;77;729;-59
2022/12/29 05:59:08;;;;;;;;;;;21.80;65.80;;;;;;1517728;77;1517;-59
2022/12/29 06:01:10;;;;;;;;;;;21.80;65.90;;;;;;1515305;77;757;-59
2022/12/29 06:03:12;;;;;;;;;;;21.70;65.80;;;;;;1508126;77;765;-58
2022/12/29 06:05:14;;;;;;;;;;;21.80;65.80;;;;;;1511342;77;705;-59
2022/12/29 06:07:16;;;;;;;;;;;21.70;65.80;;;;;;1511060;77;856;-58
2022/12/29 06:09:18;;;;;;;;;;;21.80;65.60;;;;;;1504011;77;1916;-58
2022/12/29 06:11:20;;;;;;;;;;;21.80;65.50;;;;;;1509805;77;715;-58
2022/12/29 06:13:21;;;;;;;;;;;21.80;65.50;;;;;;1504983;77;1482;-58
2022/12/29 06:15:23;;;;;;;;;;;21.90;65.50;;;;;;1511689;77;805;-58
2022/12/29 06:17:25;;;;;;;;;;;21.80;65.60;;;;;;1514175;77;524;-58
2022/12/29 06:19:27;;;;;;;;;;;21.90;65.90;;;;;;1505166;77;1157;-58
2022/12/29 06:21:29;;;;;;;;;;;21.80;65.40;;;;;;1516479;77;743;-58
2022/12/29 06:23:31;;;;;;;;;;;21.90;65.50;;;;;;1518088;77;684;-57
2022/12/29 06:25:33;;;;;;;;;;;21.90;65.40;;;;;;1515602;76;783;-58
2022/12/29 06:27:35;;;;;;;;;;;21.90;65.50;;;;;;1514948;76;1502;-58
2022/12/29 06:29:39;;;;;;;;;;;21.90;65.50;;;;;;1511034;77;1940;-57
2022/12/29 06:31:41;;;;;;;;;;;22.00;65.50;;;;;;1515944;77;1590;-58
2022/12/29 06:33:42;;;;;;;;;;;21.90;65.50;;;;;;1516452;76;731;-58
2022/12/29 06:35:45;;;;;;;;;;;21.90;65.40;;;;;;1509306;77;899;-58
2022/12/29 06:37:47;;;;;;;;;;;22.00;65.30;;;;;;1508400;77;765;-58
2022/12/29 06:39:49;;;;;;;;;;;22.00;65.30;;;;;;1505354;77;1144;-58
2022/12/29 06:41:54;;;;;;;;;;;22.00;65.20;;;;;;1509472;77;1457;-58
2022/12/29 06:43:56;;;;;;;;;;;22.00;65.20;;;;;;1516181;77;733;-58
2022/12/29 06:45:58;;;;;;;;;;;22.00;65.10;;;;;;1513474;77;790;-58
2022/12/29 06:47:59;;;;;;;;;;;22.00;65.20;;;;;;1508215;77;678;-58
2022/12/29 06:50:01;;;;;;;;;;;22.00;65.20;;;;;;1514079;77;1944;-58
2022/12/29 06:52:04;;;;;;;;;;;22.00;65.20;;;;;;1512850;77;768;-58
2022/12/29 06:54:06;;;;;;;;;;;22.00;65.20;;;;;;1505053;77;625;-58
2022/12/29 06:56:08;;;;;;;;;;;22.00;65.20;;;;;;1508603;77;1477;-58
2022/12/29 06:58:10;;;;;;;;;;;22.00;65.20;;;;;;1507216;77;713;-58
2022/12/29 07:00:12;;;;;;;;;;;21.90;65.20;;;;;;1502676;77;1151;-58
2022/12/29 07:02:19;;;;;;;;;;;22.00;65.30;;;;;;1508499;77;812;-58
2022/12/29 07:04:20;;;;;;;;;;;21.90;65.30;;;;;;1506933;77;1645;-59
2022/12/29 07:06:22;;;;;;;;;;;21.90;65.30;;;;;;1506579;77;676;-57
2022/12/29 07:08:24;;;;;;;;;;;21.90;65.30;;;;;;1505845;77;1080;-57
2022/12/29 07:10:26;;;;;;;;;;;22.00;65.30;;;;;;1509721;77;1938;-58
2022/12/29 07:12:28;;;;;;;;;;;21.90;65.40;;;;;;1511593;77;788;-58
2022/12/29 07:14:30;;;;;;;;;;;22.00;65.40;;;;;;1511904;77;733;-57
2022/12/29 07:16:32;;;;;;;;;;;21.90;65.30;;;;;;1509274;77;815;-57
2022/12/29 07:18:34;;;;;;;;;;;21.90;65.40;;;;;;1508376;77;1156;-57
2022/12/29 07:20:36;;;;;;;;;;;22.00;65.60;;;;;;1511522;77;714;-58
2022/12/29 07:22:38;;;;;;;;;;;22.00;65.70;;;;;;1505044;77;764;-58
2022/12/29 07:24:40;;;;;;;;;;;21.90;65.80;;;;;;1508578;77;1515;-58
2022/12/29 07:26:42;;;;;;;;;;;22.00;65.90;;;;;;1495071;77;719;-57
2022/12/29 07:28:44;;;;;;;;;;;22.00;65.90;;;;;;1502583;77;1104;-57
2022/12/29 07:30:46;;;;;;;;;;;22.00;66.00;;;;;;1508432;77;1913;-59
2022/12/29 07:32:48;;;;;;;;;;;22.00;65.80;;;;;;1511702;77;755;-59
2022/12/29 07:34:50;;;;;;;;;;;22.00;65.90;;;;;;1518686;77;761;-59
2022/12/29 07:36:52;;;;;;;;;;;22.00;66.00;;;;;;1517937;77;661;-58
2022/12/29 07:38:54;;;;;;;;;;;22.00;66.10;;;;;;1507624;77;1295;-61
2022/12/29 07:40:58;;;;;;;;;;;22.00;66.10;;;;;;1505243;77;705;-58
2022/12/29 07:43:01;;;;;;;;;;;22.00;66.00;;;;;;1505768;77;792;-60
2022/12/29 07:45:03;;;;;;;;;;;22.10;65.70;;;;;;1506707;77;894;-58
2022/12/29 07:47:05;;;;;;;;;;;22.10;65.40;;;;;;1515071;77;764;-58
2022/12/29 07:49:06;;;;;;;;;;;22.10;65.10;;;;;;1514853;77;1142;-58
2022/12/29 07:51:09;;;;;;;;;;;22.10;64.90;;;;;;1522167;77;1924;-58
2022/12/29 07:53:11;;;;;;;;;;;22.00;64.70;;;;;;1510647;77;662;-59
2022/12/29 07:55:13;;;;;;;;;;;21.90;64.50;;;;;;1504117;77;808;-58
2022/12/29 07:57:15;;;;;;;;;;;22.00;64.80;;;;;;1504275;77;712;-59
2022/12/29 07:59:17;;;;;;;;;;;21.90;64.50;;;;;;1512456;77;1184;-56
2022/12/29 08:01:19;;;;;;;;;;;21.90;64.00;;;;;;1510748;77;722;-56
2022/12/29 08:03:21;;;;;;;;;;;21.90;63.90;;;;;;1514772;77;700;-57
2022/12/29 08:05:23;;;;;;;;;;;21.90;63.10;;;;;;1507734;77;1504;-57
2022/12/29 08:07:25;;;;;;;;;;;21.90;62.40;;;;;;1506584;77;656;-58
2022/12/29 08:09:27;;;;;;;;;;;21.90;61.90;;;;;;1503329;77;1957;-56
2022/12/29 08:11:29;;;;;;;;;;;21.90;61.60;;;;;;1511455;77;698;-58
2022/12/29 08:13:30;;;;;;;;;;;21.90;61.20;;;;;;1511384;77;610;-57
2022/12/29 08:15:32;;;;;;;;;;;21.90;60.70;;;;;;1507133;77;795;-57
2022/12/29 08:17:34;;;;;;;;;;;21.90;60.40;;;;;;1502583;77;887;-56
2022/12/29 08:19:36;;;;;;;;;;;21.90;60.20;;;;;;1513099;77;1595;-56
2022/12/29 08:21:38;;;;;;;;;;;21.80;59.90;;;;;;1509934;77;725;-57
2022/12/29 08:23:40;;;;;;;;;;;21.90;59.50;;;;;;1513080;77;642;-56
2022/12/29 08:25:42;;;;;;;;;;;21.90;59.30;;;;;;1510434;77;807;-58
2022/12/29 08:27:44;;;;;;;;;;;21.80;59.20;;;;;;1509402;77;660;-57
2022/12/29 08:29:46;;;;;;;;;;;21.70;59.00;;;;;;1511729;77;1945;-57
2022/12/29 08:31:48;;;;;;;;;;;21.80;58.90;;;;;;1516398;77;784;-57
2022/12/29 08:33:50;;;;;;;;;;;21.70;58.70;;;;;;1520221;77;1456;-57
2022/12/29 08:35:52;;;;;;;;;;;21.80;58.10;;;;;;1504567;77;761;-57
2022/12/29 08:37:54;;;;;;;;;;;21.70;57.80;;;;;;1504763;77;753;-57
2022/12/29 08:39:55;;;;;;;;;;;21.70;57.50;;;;;;1503931;77;1162;-58
2022/12/29 08:41:57;;;;;;;;;;;21.70;57.30;;;;;;1508410;77;759;-57
2022/12/29 08:43:59;;;;;;;;;;;21.70;56.90;;;;;;1496464;77;726;-58
2022/12/29 08:46:01;;;;;;;;;;;21.70;56.70;;;;;;1522787;77;802;-57
2022/12/29 08:48:03;;;;;;;;;;;21.60;56.60;;;;;;1506144;76;1492;-56
2022/12/29 08:50:05;;;;;;;;;;;21.60;56.50;;;;;;1510365;77;1937;-56
2022/12/29 08:52:08;;;;;;;;;;;21.60;56.50;;;;;;1498744;77;731;-56
2022/12/29 08:54:09;;;;;;;;;;;21.50;56.30;;;;;;1508137;77;675;-57
2022/12/29 08:56:11;;;;;;;;;;;21.50;56.20;;;;;;1501541;77;688;-58
2022/12/29 08:58:14;;;;;;;;;;;21.50;56.20;;;;;;1500165;77;726;-56
2022/12/29 09:00:16;;;;;;;;;;;21.50;56.00;;;;;;1508344;77;1190;-57
2022/12/29 09:02:18;;;;;;;;;;;21.50;55.90;;;;;;1505868;77;1305;-56
2022/12/29 09:04:20;;;;;;;;;;;21.50;55.70;;;;;;1510310;77;697;-56
2022/12/29 09:06:21;;;;;;;;;;;21.40;55.50;;;;;;1507029;77;803;-57
2022/12/29 09:08:23;;;;;;;;;;;21.50;55.70;;;;;;1509252;77;1138;-57
2022/12/29 09:10:25;;;;;;;;;;;21.40;55.10;;;;;;1500861;77;1940;-59
2022/12/29 09:12:27;;;;;;;;;;;21.30;54.90;;;;;;1507273;77;704;-57
2022/12/29 09:14:29;;;;;;;;;;;21.30;55.00;;;;;;1502411;77;691;-57
2022/12/29 09:16:31;;;;;;;;;;;21.30;55.00;;;;;;1509360;77;1464;-56
2022/12/29 09:18:33;;;;;;;;;;;21.30;55.00;;;;;;1517895;77;1124;-56
2022/12/29 09:20:35;;;;;;;;;;;21.40;54.80;;;;;;1514677;77;758;-57
2022/12/29 09:22:36;;;;;;;;;;;21.30;54.70;;;;;;1512578;77;735;-57
2022/12/29 09:24:38;;;;;;;;;;;21.30;54.50;;;;;;1511628;77;739;-57
2022/12/29 09:26:40;;;;;;;;;;;21.30;54.40;;;;;;1507875;77;867;-57
2022/12/29 09:28:44;;;;;;;;;;;21.30;54.20;;;;;;1512338;77;1132;-59
2022/12/29 09:30:45;;;;;;;;;;;21.20;54.00;;;;;;1509101;77;1933;-58
2022/12/29 09:32:48;;;;;;;;;;;21.20;53.90;;;;;;1508436;77;780;-57
2022/12/29 09:34:49;;;;;;;;;;;21.20;53.90;;;;;;1512458;77;790;-57
2022/12/29 09:36:51;;;;;;;;;;;21.10;53.90;;;;;;1511791;77;767;-58
2022/12/29 09:38:54;;;;;;;;;;;21.20;53.70;;;;;;1504471;77;1103;-59
2022/12/29 09:40:57;;;;;;;;;;;21.10;53.60;;;;;;1516594;77;654;-58
2022/12/29 09:43:00;;;;;;;;;;;21.10;53.60;;;;;;1511571;77;706;-58
2022/12/29 09:45:15;;;;;;;;;;;21.10;53.40;;;;;;1510742;77;1780;-58
2022/12/29 09:47:17;;;;;;;;;;;21.10;53.10;;;;;;1509728;77;618;-57
2022/12/29 09:49:26;;;;;;;;;;;21.10;52.80;;;;;;1500418;77;1133;-58
2022/12/29 09:51:28;;;;;;;;;;;21.00;52.40;;;;;;1512330;77;1969;-58
2022/12/29 09:53:32;;;;;;;;;;;21.00;51.70;;;;;;1509327;77;763;-58
2022/12/29 09:55:38;;;;;;;;;;;21.00;52.00;;;;;;1511022;77;732;-58
2022/12/29 09:57:47;;;;;;;;;;;20.90;52.00;;;;;;1513761;77;633;-58
2022/12/29 09:59:50;;;;;;;;;;;20.80;52.30;;;;;;1508375;77;1157;-58
2022/12/29 10:02:10;;;;;;;;;;;20.80;52.80;;;;;;1515001;77;747;-59
2022/12/29 10:04:12;;;;;;;;;;;20.70;53.00;;;;;;1509556;77;582;-59
2022/12/29 10:06:24;;;;;;;;;;;20.60;53.10;;;;;;1509587;77;773;-59
2022/12/29 10:08:30;;;;;;;;;;;20.60;53.40;;;;;;1506285;77;1192;-58
2022/12/29 10:10:43;;;;;;;;;;;20.50;53.60;;;;;;1513558;77;1924;-59
2022/12/29 10:12:55;;;;;;;;;;;20.50;53.80;;;;;;1512981;77;1530;-59
2022/12/29 10:14:59;;;;;;;;;;;20.50;53.90;;;;;;1525727;71;222940;-75
2022/12/29 10:17:15;;;;;;;;;;;20.50;53.90;;;;;;1599008;74;716;-73
2022/12/29 10:19:24;;;;;;;;;;;20.60;54.00;;;;;;1533201;74;1012;-74
2022/12/29 10:21:46;;;;;;;;;;;20.50;53.90;;;;;;1600417;74;780;-74
2022/12/29 10:23:51;;;;;;;;;;;20.50;54.10;;;;;;1595809;74;1093;-74
2022/12/29 10:25:54;;;;;;;;;;;20.50;54.20;;;;;;1569937;74;1356;-71
2022/12/29 10:27:56;;;;;;;;;;;20.50;54.20;;;;;;1567838;75;755;-73
2022/12/29 10:29:58;;;;;;;;;;;20.50;54.10;;;;;;1562595;75;699;-73
2022/12/29 10:32:01;;;;;;;;;;;20.40;53.90;;;;;;1565370;75;1954;-73
2022/12/29 10:34:04;;;;;;;;;;;20.50;54.10;;;;;;1572797;75;699;-73
2022/12/29 10:36:19;;;;;;;;;;;20.50;54.10;;;;;;1571809;75;1114;-74
2022/12/29 10:38:28;;;;;;;;;;;20.50;54.10;;;;;;1535977;75;1147;-74
2022/12/29 10:40:35;;;;;;;;;;;20.50;53.90;;;;;;1564045;75;1453;-73
2022/12/29 10:42:38;;;;;;;;;;;20.50;54.00;;;;;;1572537;75;1194;-75
2022/12/29 10:44:40;;;;;;;;;;;20.50;53.90;;;;;;1557711;75;1140;-74
2022/12/29 10:46:41;;;;;;;;;;;20.50;54.00;;;;;;1568925;75;746;-72
2022/12/29 10:48:46;;;;;;;;;;;20.50;54.00;;;;;;1571782;75;750;-72
2022/12/29 10:50:48;;;;;;;;;;;20.50;54.40;;;;;;1568938;75;1918;-72
2022/12/29 10:52:50;;;;;;;;;;;20.50;54.20;;;;;;1573106;75;698;-70
2022/12/29 10:54:53;;;;;;;;;;;20.50;54.00;;;;;;1568904;74;1472;-72
2022/12/29 10:56:59;;;;;;;;;;;20.50;54.00;;;;;;1565670;75;727;-72
2022/12/29 10:59:09;;;;;;;;;;;20.50;54.10;;;;;;1564236;75;1003;-71
2022/12/29 11:01:11;;;;;;;;;;;20.50;54.20;;;;;;1568734;75;1666;-71
2022/12/29 11:03:14;;;;;;;;;;;20.40;53.90;;;;;;1569476;75;739;-71
2022/12/29 11:05:24;;;;;;;;;;;20.50;54.40;;;;;;1565450;75;1172;-72
2022/12/29 11:07:26;;;;;;;;;;;20.40;54.50;;;;;;1573016;75;717;-71
2022/12/29 11:09:32;;;;;;;;;;;20.40;54.90;;;;;;1570055;75;1453;-73
2022/12/29 11:11:35;;;;;;;;;;;20.50;56.00;;;;;;1572546;75;1910;-74
2022/12/29 11:13:49;;;;;;;;;;;20.50;56.50;;;;;;1566762;75;740;-72
2022/12/29 11:15:51;;;;;;;;;;;20.50;56.30;;;;;;1572497;75;1132;-73
2022/12/29 11:17:54;;;;;;;;;;;20.40;56.90;;;;;;1571592;75;812;-71
2022/12/29 11:19:56;;;;;;;;;;;20.50;55.60;;;;;;1570180;75;719;-71
2022/12/29 11:22:16;;;;;;;;;;;20.50;58.10;;;;;;1571111;74;742;-73
2022/12/29 11:24:25;;;;;;;;;;;20.60;58.40;;;;;;1570559;75;640;-76
2022/12/29 11:26:27;;;;;;;;;;;20.70;58.30;;;;;;1569222;75;700;-76
2022/12/29 11:28:31;;;;;;;;;;;20.80;58.30;;;;;;1572253;75;714;-76
2022/12/29 11:30:32;;;;;;;;;;;21.00;57.60;;;;;;1568009;75;1535;-75
2022/12/29 11:32:34;;;;;;;;;;;21.00;57.40;;;;;;1566431;75;1949;-75
2022/12/29 11:34:36;;;;;;;;;;;21.00;57.50;;;;;;1569061;75;1128;-76
2022/12/29 11:36:38;;;;;;;;;;;21.00;57.40;;;;;;1571687;75;1538;-75
2022/12/29 11:38:41;;;;;;;;;;;21.10;57.70;;;;;;1566804;75;750;-75
2022/12/29 11:40:42;;;;;;;;;;;21.00;57.60;;;;;;1566986;75;777;-76
2022/12/29 11:42:49;;;;;;;;;;;21.10;57.60;;;;;;1566956;75;639;-75
2022/12/29 11:44:51;;;;;;;;;;;21.00;57.70;;;;;;1570141;74;1102;-75
2022/12/29 11:46:53;;;;;;;;;;;21.10;57.70;;;;;;1569337;75;599;-73
2022/12/29 11:48:58;;;;;;;;;;;21.10;57.80;;;;;;1569627;75;741;-74
2022/12/29 11:51:02;;;;;;;;;;;21.10;57.70;;;;;;1573036;75;2058;-75
2022/12/29 11:53:02;;;;;;;;;;;21.10;57.80;;;;;;1569949;75;1564;-74
2022/12/29 11:55:05;;;;;;;;;;;21.20;57.60;;;;;;1573976;74;1130;-72
2022/12/29 11:57:10;;;;;;;;;;;21.20;57.70;;;;;;1569916;75;647;-75
2022/12/29 11:59:36;;;;;;;;;;;21.30;57.80;;;;;;1564405;75;724;-73
2022/12/29 12:01:36;;;;;;;;;;;21.20;57.80;;;;;;1552725;75;1443;-75
2022/12/29 12:03:38;;;;;;;;;;;21.20;58.30;;;;;;1556269;75;768;-76
2022/12/29 12:05:41;;;;;;;;;;;21.30;57.90;;;;;;1565455;74;1441;-74
2022/12/29 12:07:45;;;;;;;;;;;21.30;57.90;;;;;;1566885;75;752;-76
2022/12/29 12:09:51;;;;;;;;;;;21.30;58.00;;;;;;1569417;75;732;-76
2022/12/29 12:11:53;;;;;;;;;;;21.30;57.80;;;;;;1572358;75;1934;-74
2022/12/29 12:14:03;;;;;;;;;;;21.40;58.00;;;;;;1570793;75;759;-76
2022/12/29 12:16:06;;;;;;;;;;;21.40;58.40;;;;;;1571992;74;1151;-73
2022/12/29 12:18:26;;;;;;;;;;;21.30;58.40;;;;;;1568864;75;1526;-76
2022/12/29 12:20:30;;;;;;;;;;;21.30;58.00;;;;;;1561347;74;748;-76
2022/12/29 12:22:35;;;;;;;;;;;21.20;58.40;;;;;;1569543;75;1106;-76
2022/12/29 12:24:42;;;;;;;;;;;21.30;58.50;;;;;;1569500;75;1152;-76
2022/12/29 12:26:51;;;;;;;;;;;21.20;58.40;;;;;;1563189;75;1047;-75
2022/12/29 12:29:13;;;;;;;;;;;21.20;58.40;;;;;;1561570;75;1680;-74
2022/12/29 12:31:19;;;;;;;;;;;21.30;58.50;;;;;;1556470;75;1938;-73
2022/12/29 12:33:38;;;;;;;;;;;21.20;58.50;;;;;;1555988;75;1480;-73
2022/12/29 12:35:45;;;;;;;;;;;21.30;58.60;;;;;;1570557;74;1572;-76
2022/12/29 12:38:05;;;;;;;;;;;21.20;58.60;;;;;;1572427;75;711;-76
2022/12/29 12:40:12;;;;;;;;;;;21.10;58.70;;;;;;1558080;75;720;-76
2022/12/29 12:42:21;;;;;;;;;;;21.20;58.80;;;;;;1555620;75;717;-75
2022/12/29 12:44:27;;;;;;;;;;;21.10;58.90;;;;;;1566681;74;1151;-73
2022/12/29 12:46:47;;;;;;;;;;;21.10;58.90;;;;;;1566083;75;1481;-72
2022/12/29 12:48:50;;;;;;;;;;;21.10;59.00;;;;;;1572829;75;744;-76